SARC/CNQ METAR and TAF weather

Enter ICAO airport designator
Station Type Date Time Source
SARC METAR 2020/06/03 00:00 UTC NOAA

SARC 030000Z 09005KT CAVOK 11/05 Q1019


Station Type Date Time Source
SARC Decoded METAR 2020/06/03 00:00 UTC NOAA

Corrientes Aero., Argentina (SARC) 27-27S 058-46W 62M
Jun 02, 2020 - 08:00 PM EDT / 2020.06.03 0000 UTC
Wind: from the E (090 degrees) at 6 MPH (5 KT):0
Visibility: greater than 7 mile(s):0
Temperature: 51 F (11 C)
Dew Point: 41 F (5 C)
Relative Humidity: 66%
Pressure (altimeter): 30.09 in. Hg (1019 hPa)
ob: SARC 030000Z 09005KT CAVOK 11/05 Q1019
cycle: 0

Station Type Date Time Source
SARC TAF 2020/02/14 08:46 UTC NOAA

TAF
AMD SARC 140730Z 1408/1506 05010KT 8000 -TSRA OVC050 FEW050CB TX34/1415Z TN26/1409Z
BECMG 1416/1418 18015KT 5000 TSRA BKN020 FEW050CB
BECMG 1423/1501 14005KT 9999 SCT020 BKN100

Example: see airport list